LMO weather

RAF Lossiemouth
Lossiemouth, Scotland, United Kingdom

Public forecast

Using degrees Celsius for public forecast. Weather courtesy of forecast.io.

METAR (pilot weather report)

Retrieved 2019/05/24 04:50 UTC (38 minutes ago):

EGQS 240450Z 30015KT 9999 BKN022 BKN027 09/05 Q1013 WHT

TAF (pilot weather forecast)

Retrieved 2019/05/24 03:00 UTC (2 hours ago):

TAF TAF EGQS 240151Z 2403/2421 27015G25KT 9999 FEW020 BKN030 TEMPO 2403/2421 SCT018 PROB30 TEMPO 2403/2409 7000 -RA SCT014 BKN018